createdAt,value
2022-08-19T00:00:44.004Z,24.71
2022-08-19T00:03:12.907Z,24.68
2022-08-19T00:05:42.980Z,24.65
2022-08-19T00:08:10.854Z,24.62
2022-08-19T00:10:38.706Z,24.58
2022-08-19T00:13:06.567Z,24.54
2022-08-19T00:15:34.917Z,24.51
2022-08-19T00:18:02.953Z,24.49
2022-08-19T00:20:32.635Z,24.46
2022-08-19T00:23:01.501Z,24.42
2022-08-19T00:25:30.142Z,24.40
2022-08-19T00:28:00.428Z,24.39
2022-08-19T00:30:29.088Z,24.38
2022-08-19T00:32:58.467Z,24.38
2022-08-19T00:35:28.506Z,24.36
2022-08-19T00:37:57.244Z,24.34
2022-08-19T00:40:27.770Z,24.32
2022-08-19T00:42:55.575Z,24.30
2022-08-19T00:45:27.766Z,24.30
2022-08-19T00:47:55.677Z,24.28
2022-08-19T00:50:26.448Z,24.27
2022-08-19T00:52:56.499Z,24.25
2022-08-19T00:55:29.947Z,24.22
2022-08-19T00:58:09.726Z,24.18
2022-08-19T01:00:39.373Z,24.12
2022-08-19T01:03:13.811Z,24.09
2022-08-19T01:05:44.666Z,24.04
2022-08-19T01:08:13.489Z,23.99
2022-08-19T01:10:49.643Z,23.92
2022-08-19T01:13:22.259Z,23.88
2022-08-19T01:16:00.384Z,23.83
2022-08-19T01:18:29.835Z,23.76
2022-08-19T01:21:10.963Z,23.70
2022-08-19T01:23:44.611Z,23.64
2022-08-19T01:26:25.118Z,23.59
2022-08-19T01:28:58.334Z,23.53
2022-08-19T01:31:33.772Z,23.48
2022-08-19T01:34:03.153Z,23.44
2022-08-19T01:36:34.795Z,23.41
2022-08-19T01:39:07.519Z,23.39
2022-08-19T01:41:36.208Z,23.36
2022-08-19T01:44:17.722Z,23.33
2022-08-19T01:46:49.408Z,23.29
2022-08-19T01:49:20.815Z,23.24
2022-08-19T01:51:50.870Z,23.20
2022-08-19T01:54:27.324Z,23.14
2022-08-19T01:57:10.150Z,23.10
2022-08-19T01:59:40.420Z,23.06
2022-08-19T02:02:09.940Z,23.02
2022-08-19T02:04:39.249Z,22.98
2022-08-19T02:07:09.249Z,22.92
2022-08-19T02:09:37.321Z,22.88
2022-08-19T02:12:06.385Z,22.83
2022-08-19T02:14:38.119Z,22.79
2022-08-19T02:17:06.419Z,22.76
2022-08-19T02:19:34.310Z,22.71
2022-08-19T02:22:02.158Z,22.68
2022-08-19T02:24:30.027Z,22.65
2022-08-19T02:26:58.447Z,22.59
2022-08-19T02:29:26.403Z,22.53
2022-08-19T02:31:54.206Z,22.47
2022-08-19T02:34:22.025Z,22.42
2022-08-19T02:36:51.809Z,22.38
2022-08-19T02:39:20.590Z,22.34
2022-08-19T02:41:50.692Z,22.31
2022-08-19T02:44:31.119Z,22.27
2022-08-19T02:46:59.786Z,22.23
2022-08-19T02:49:29.418Z,22.19
2022-08-19T02:52:03.645Z,22.16
2022-08-19T02:54:31.485Z,22.12
2022-08-19T02:57:00.149Z,22.08
2022-08-19T02:59:32.196Z,22.06
2022-08-19T03:02:00.026Z,22.03
2022-08-19T03:04:29.734Z,22.01
2022-08-19T03:07:02.498Z,21.99
2022-08-19T03:09:38.990Z,21.97
2022-08-19T03:12:07.414Z,21.93
2022-08-19T03:14:36.542Z,21.91
2022-08-19T03:17:05.762Z,21.87
2022-08-19T03:19:33.611Z,21.83
2022-08-19T03:22:01.715Z,21.78
2022-08-19T03:24:29.563Z,21.72
2022-08-19T03:26:58.729Z,21.68
2022-08-19T03:29:30.776Z,21.65
2022-08-19T03:32:02.061Z,21.62
2022-08-19T03:34:35.656Z,21.57
2022-08-19T03:37:11.570Z,21.53
2022-08-19T03:39:40.342Z,21.50
2022-08-19T03:42:38.125Z,21.46
2022-08-19T03:44:56.512Z,21.42
2022-08-19T03:47:24.320Z,21.39
2022-08-19T03:49:52.531Z,21.36
2022-08-19T03:52:21.186Z,21.35
2022-08-19T03:54:49.239Z,21.33
2022-08-19T03:57:18.206Z,21.30
2022-08-19T03:59:46.073Z,21.30
2022-08-19T04:02:14.301Z,21.30
2022-08-19T04:04:44.580Z,21.30
2022-08-19T04:07:22.525Z,21.32
2022-08-19T04:09:53.192Z,21.36
2022-08-19T04:12:21.535Z,21.40
2022-08-19T04:14:49.321Z,21.44
2022-08-19T04:17:17.182Z,21.51
2022-08-19T04:19:45.618Z,21.58
2022-08-19T04:22:14.332Z,21.67
2022-08-19T04:24:42.322Z,21.75
2022-08-19T04:27:10.100Z,21.83
2022-08-19T04:29:40.635Z,21.89
2022-08-19T04:32:10.156Z,21.96
2022-08-19T04:35:01.287Z,22.05
2022-08-19T04:37:34.654Z,22.16
2022-08-19T04:40:24.916Z,22.30
2022-08-19T04:42:53.056Z,22.41
2022-08-19T04:45:22.877Z,22.48
2022-08-19T04:47:58.717Z,22.58
2022-08-19T04:50:30.344Z,22.68
2022-08-19T04:52:58.108Z,22.76
2022-08-19T04:55:28.841Z,22.84
2022-08-19T04:57:57.188Z,22.95
2022-08-19T05:00:26.322Z,23.05
2022-08-19T05:02:54.340Z,23.13
2022-08-19T05:05:22.780Z,23.23
2022-08-19T05:07:50.683Z,23.34
2022-08-19T05:10:18.602Z,23.43
2022-08-19T05:12:47.658Z,23.54
2022-08-19T05:15:15.569Z,23.68
2022-08-19T05:18:03.391Z,23.85
2022-08-19T05:20:49.968Z,23.99
2022-08-19T05:23:22.183Z,24.23
2022-08-19T05:25:52.794Z,24.45
2022-08-19T05:28:22.581Z,24.68
2022-08-19T05:30:51.974Z,24.91
2022-08-19T05:33:20.201Z,25.15
2022-08-19T05:35:49.483Z,25.38
2022-08-19T05:38:18.998Z,25.64
2022-08-19T05:40:49.190Z,25.91
2022-08-19T05:43:17.724Z,26.18
2022-08-19T05:45:45.779Z,26.38
2022-08-19T05:48:15.354Z,26.38
2022-08-19T05:50:45.579Z,26.46
2022-08-19T05:53:17.380Z,26.66
2022-08-19T05:55:45.620Z,26.94
2022-08-19T05:58:14.430Z,27.23
2022-08-19T06:00:45.558Z,27.54
2022-08-19T06:03:13.541Z,27.80
2022-08-19T06:05:51.516Z,28.04
2022-08-19T06:08:33.709Z,28.34
2022-08-19T06:11:15.145Z,28.57
2022-08-19T06:13:44.461Z,28.72
2022-08-19T06:16:12.277Z,28.70
2022-08-19T06:18:40.154Z,28.78
2022-08-19T06:21:08.369Z,28.95
2022-08-19T06:23:36.618Z,29.10
2022-08-19T06:26:05.400Z,29.31
2022-08-19T06:28:34.594Z,29.52
2022-08-19T06:31:07.480Z,29.66
2022-08-19T06:33:35.600Z,29.85
2022-08-19T06:36:03.643Z,30.00
2022-08-19T06:38:34.469Z,30.18
2022-08-19T06:41:07.578Z,30.38
2022-08-19T06:43:39.063Z,30.55
2022-08-19T06:46:15.768Z,30.76
2022-08-19T06:48:44.970Z,30.98
2022-08-19T06:51:19.181Z,31.14
2022-08-19T06:56:32.137Z,31.44
2022-08-19T06:59:10.653Z,31.64
2022-08-19T07:07:20.067Z,32.08
2022-08-19T07:09:57.967Z,32.13
2022-08-19T07:12:36.143Z,32.22
2022-08-19T07:15:06.152Z,32.24
2022-08-19T07:17:34.677Z,32.17
2022-08-19T07:20:05.342Z,32.15
2022-08-19T07:22:37.977Z,32.08
2022-08-19T07:25:08.818Z,32.04
2022-08-19T07:27:35.583Z,31.99
2022-08-19T07:30:03.618Z,31.87
2022-08-19T07:32:33.182Z,31.74
2022-08-19T07:35:01.111Z,31.68
2022-08-19T07:37:32.794Z,31.64
2022-08-19T07:40:01.904Z,31.55
2022-08-19T07:54:53.504Z,31.13
2022-08-19T07:57:21.946Z,31.12
2022-08-19T07:59:50.300Z,31.08
2022-08-19T08:02:18.214Z,31.12
2022-08-19T08:05:05.075Z,31.21
2022-08-19T08:07:52.190Z,31.36
2022-08-19T08:10:21.488Z,31.45
2022-08-19T08:13:09.634Z,31.39
2022-08-19T08:15:43.342Z,31.28
2022-08-19T08:18:13.468Z,31.25
2022-08-19T08:20:42.408Z,31.27
2022-08-19T08:23:30.298Z,31.34
2022-08-19T08:25:59.404Z,31.44
2022-08-19T08:28:29.521Z,31.50
2022-08-19T08:30:59.094Z,31.55
2022-08-19T08:33:33.751Z,31.58
2022-08-19T08:36:06.301Z,31.62
2022-08-19T08:38:39.705Z,31.59
2022-08-19T08:41:28.918Z,31.56
2022-08-19T08:43:58.450Z,31.68
2022-08-19T08:46:46.486Z,31.74
2022-08-19T08:49:40.563Z,31.83
2022-08-19T08:52:17.483Z,31.87
2022-08-19T08:54:55.492Z,31.87
2022-08-19T08:57:55.961Z,31.84
2022-08-19T09:00:33.794Z,31.81
2022-08-19T09:03:04.174Z,31.73
2022-08-19T09:05:48.405Z,31.61
2022-08-19T09:08:41.837Z,31.53
2022-08-19T09:11:42.667Z,31.47
2022-08-19T09:14:49.744Z,31.44
2022-08-19T09:17:32.256Z,31.39
2022-08-19T09:20:06.315Z,31.30
2022-08-19T09:22:45.075Z,31.26
2022-08-19T09:25:26.827Z,31.19
2022-08-19T09:28:02.283Z,31.21
2022-08-19T09:30:41.154Z,31.28
2022-08-19T09:33:09.568Z,31.37
2022-08-19T09:35:49.933Z,31.46
2022-08-19T09:38:22.652Z,31.64
2022-08-19T09:40:51.991Z,31.87
2022-08-19T09:43:33.068Z,32.16
2022-08-19T09:46:02.571Z,32.30
2022-08-19T09:48:31.037Z,32.35
2022-08-19T09:51:12.078Z,32.46
2022-08-19T09:53:40.432Z,32.54
2022-08-19T09:56:09.393Z,32.56
2022-08-19T09:58:38.738Z,32.55
2022-08-19T10:01:08.453Z,32.54
2022-08-19T10:03:37.833Z,32.57
2022-08-19T10:06:15.131Z,32.59
2022-08-19T10:08:50.324Z,32.67
2022-08-19T10:11:28.196Z,32.80
2022-08-19T10:14:06.927Z,32.95
2022-08-19T10:16:39.794Z,33.01
2022-08-19T10:19:08.095Z,33.12
2022-08-19T10:21:37.021Z,33.24
2022-08-19T10:24:06.868Z,33.32
2022-08-19T10:26:43.318Z,33.50
2022-08-19T10:29:13.097Z,33.73
2022-08-19T10:32:09.566Z,33.89
2022-08-19T10:34:48.775Z,34.01
2022-08-19T10:37:28.874Z,34.10
2022-08-19T10:39:59.698Z,34.15
2022-08-19T10:42:28.117Z,34.20
2022-08-19T10:44:56.523Z,34.20
2022-08-19T10:47:26.335Z,34.28
2022-08-19T10:50:18.784Z,34.34
2022-08-19T10:52:49.649Z,34.36
2022-08-19T10:55:41.693Z,34.33
2022-08-19T10:58:18.757Z,34.33
2022-08-19T11:00:54.215Z,34.38
2022-08-19T11:03:22.628Z,34.48
2022-08-19T11:06:07.611Z,34.57
2022-08-19T11:08:38.714Z,34.60
2022-08-19T11:11:08.089Z,34.67
2022-08-19T11:13:41.382Z,34.75
2022-08-19T11:16:19.200Z,34.61
2022-08-19T11:18:50.218Z,34.51
2022-08-19T11:21:45.501Z,34.42
2022-08-19T11:24:21.774Z,34.34
2022-08-19T11:26:51.960Z,34.31
2022-08-19T11:29:22.024Z,34.37
2022-08-19T11:31:52.051Z,34.45
2022-08-19T11:34:23.895Z,34.55
2022-08-19T11:36:52.466Z,34.61
2022-08-19T11:39:22.938Z,34.64
2022-08-19T11:41:50.792Z,34.69
2022-08-19T11:44:19.271Z,34.79
2022-08-19T11:46:47.950Z,34.79
2022-08-19T11:49:19.916Z,34.76
2022-08-19T11:51:48.109Z,34.77
2022-08-19T11:54:17.363Z,34.83
2022-08-19T11:56:47.347Z,34.93
2022-08-19T11:59:15.260Z,35.01
2022-08-19T12:01:43.785Z,35.16
2022-08-19T12:04:12.259Z,35.39
2022-08-19T12:06:42.363Z,35.59
2022-08-19T12:09:11.865Z,35.74
2022-08-19T12:11:40.440Z,35.84
2022-08-19T12:14:14.812Z,35.87
2022-08-19T12:16:51.054Z,35.89
2022-08-19T12:19:22.187Z,35.93
2022-08-19T12:21:51.509Z,35.96
2022-08-19T12:24:24.480Z,36.04
2022-08-19T12:26:53.881Z,36.15
2022-08-19T12:29:29.102Z,36.16
2022-08-19T12:32:03.847Z,36.16
2022-08-19T12:34:34.654Z,36.12
2022-08-19T12:37:07.270Z,36.15
2022-08-19T12:39:36.095Z,36.21
2022-08-19T12:42:04.321Z,36.23
2022-08-19T12:44:33.786Z,36.18
2022-08-19T12:47:04.057Z,36.13
2022-08-19T12:49:54.234Z,36.12
2022-08-19T12:52:28.354Z,36.11
2022-08-19T12:54:58.428Z,36.03
2022-08-19T12:57:32.530Z,35.96
2022-08-19T13:00:13.582Z,35.89
2022-08-19T13:02:45.678Z,35.80
2022-08-19T13:05:17.729Z,35.79
2022-08-19T13:07:45.543Z,35.77
2022-08-19T13:10:16.944Z,35.76
2022-08-19T13:13:09.688Z,35.76
2022-08-19T13:15:45.755Z,35.73
2022-08-19T13:18:15.818Z,35.67
2022-08-19T13:20:52.577Z,35.63
2022-08-19T13:23:21.036Z,35.59
2022-08-19T13:25:58.541Z,35.39
2022-08-19T13:28:28.990Z,35.05
2022-08-19T13:31:15.975Z,34.83
2022-08-19T13:33:43.805Z,34.59
2022-08-19T13:36:11.712Z,34.12
2022-08-19T13:38:40.387Z,33.56
2022-08-19T13:41:13.232Z,32.85
2022-08-19T13:43:43.256Z,32.43
2022-08-19T13:46:15.605Z,32.28
2022-08-19T13:48:44.513Z,32.21
2022-08-19T13:51:12.387Z,32.14
2022-08-19T13:53:47.407Z,32.03
2022-08-19T13:56:22.986Z,31.92
2022-08-19T13:58:54.618Z,31.84
2022-08-19T14:01:25.672Z,31.79
2022-08-19T14:03:54.368Z,31.65
2022-08-19T14:06:23.453Z,31.50
2022-08-19T14:08:51.418Z,31.29
2022-08-19T14:11:20.827Z,31.10
2022-08-19T14:13:51.444Z,31.02
2022-08-19T14:16:19.456Z,30.95
2022-08-19T14:18:47.291Z,30.82
2022-08-19T14:21:18.451Z,30.57
2022-08-19T14:23:46.755Z,30.34
2022-08-19T14:26:19.212Z,30.17
2022-08-19T14:28:47.238Z,30.11
2022-08-19T14:31:20.266Z,29.94
2022-08-19T14:33:48.799Z,29.89
2022-08-19T14:36:21.419Z,29.84
2022-08-19T14:38:52.358Z,29.74
2022-08-19T14:41:23.203Z,29.68
2022-08-19T14:43:53.563Z,29.65
2022-08-19T14:46:26.341Z,29.51
2022-08-19T14:48:57.045Z,29.34
2022-08-19T14:51:28.078Z,29.23
2022-08-19T14:53:57.527Z,29.18
2022-08-19T14:56:28.211Z,29.17
2022-08-19T14:58:56.395Z,29.16
2022-08-19T15:01:24.332Z,29.10
2022-08-19T15:03:55.883Z,28.90
2022-08-19T15:06:25.510Z,28.83
2022-08-19T15:08:55.330Z,28.80
2022-08-19T15:11:27.627Z,28.69
2022-08-19T15:14:00.016Z,28.54
2022-08-19T15:16:29.023Z,28.35
2022-08-19T15:18:58.732Z,28.25
2022-08-19T15:21:28.244Z,28.16
2022-08-19T15:23:58.723Z,28.06
2022-08-19T15:26:29.169Z,27.99
2022-08-19T15:28:59.092Z,27.91
2022-08-19T15:31:29.299Z,27.81
2022-08-19T15:33:59.133Z,27.77
2022-08-19T15:36:28.501Z,27.78
2022-08-19T15:38:57.503Z,27.82
2022-08-19T15:41:30.701Z,27.83
2022-08-19T15:43:59.921Z,27.83
2022-08-19T15:46:31.999Z,27.82
2022-08-19T15:49:00.946Z,27.80
2022-08-19T15:51:32.093Z,27.85
2022-08-19T15:54:06.199Z,27.90
2022-08-19T15:57:06.836Z,27.97
2022-08-19T15:59:55.557Z,27.98
2022-08-19T16:02:47.660Z,27.92
2022-08-19T16:05:40.003Z,27.91
2022-08-19T16:08:09.994Z,27.91
2022-08-19T16:10:39.834Z,27.91
2022-08-19T16:13:07.684Z,27.91
2022-08-19T16:15:35.873Z,27.91
2022-08-19T16:18:04.871Z,27.94
2022-08-19T16:20:33.083Z,27.96
2022-08-19T16:23:05.220Z,27.97
2022-08-19T16:25:36.516Z,27.94
2022-08-19T16:28:07.760Z,27.89
2022-08-19T16:30:41.591Z,27.85
2022-08-19T16:33:09.915Z,27.81
2022-08-19T16:35:38.511Z,27.74
2022-08-19T16:38:10.131Z,27.67
2022-08-19T16:40:38.009Z,27.63
2022-08-19T16:43:05.864Z,27.58
2022-08-19T16:45:33.840Z,27.56
2022-08-19T16:48:02.332Z,27.56
2022-08-19T16:50:48.352Z,27.56
2022-08-19T16:53:20.159Z,27.51
2022-08-19T16:55:53.583Z,27.41
2022-08-19T16:58:29.941Z,27.33
2022-08-19T17:01:03.791Z,27.31
2022-08-19T17:03:36.622Z,27.25
2022-08-19T17:06:16.134Z,27.17
2022-08-19T17:08:52.929Z,27.08
2022-08-19T17:11:23.182Z,27.03
2022-08-19T17:13:52.701Z,26.98
2022-08-19T17:16:24.726Z,26.97
2022-08-19T17:18:54.489Z,26.95
2022-08-19T17:21:30.179Z,26.92
2022-08-19T17:23:59.672Z,26.90
2022-08-19T17:26:28.307Z,26.85
2022-08-19T17:28:58.301Z,26.80
2022-08-19T17:31:30.115Z,26.75
2022-08-19T17:33:59.015Z,26.68
2022-08-19T17:36:30.399Z,26.62
2022-08-19T17:39:04.185Z,26.57
2022-08-19T17:41:35.392Z,26.52
2022-08-19T17:44:04.507Z,26.46
2022-08-19T17:46:32.779Z,26.41
2022-08-19T17:49:00.913Z,26.34
2022-08-19T17:51:42.588Z,26.28
2022-08-19T17:54:17.286Z,26.22
2022-08-19T17:56:46.648Z,26.15
2022-08-19T17:59:15.463Z,26.07
2022-08-19T18:01:53.902Z,26.01
2022-08-19T18:04:25.281Z,25.95
2022-08-19T18:06:55.643Z,25.91
2022-08-19T18:09:30.151Z,25.87
2022-08-19T18:12:15.818Z,25.82
2022-08-19T18:14:44.210Z,25.77
2022-08-19T18:17:17.468Z,25.71
2022-08-19T18:19:46.437Z,25.65
2022-08-19T18:22:35.563Z,25.60
2022-08-19T18:25:24.134Z,25.54
2022-08-19T18:27:56.257Z,25.48
2022-08-19T18:30:25.550Z,25.45
2022-08-19T18:32:54.661Z,25.43
2022-08-19T18:35:29.705Z,25.42
2022-08-19T18:38:01.159Z,25.42
2022-08-19T18:40:48.330Z,25.40
2022-08-19T18:43:35.055Z,25.40
2022-08-19T18:46:23.159Z,25.38
2022-08-19T18:49:07.285Z,25.35
2022-08-19T18:51:35.496Z,25.32
2022-08-19T18:54:04.089Z,25.31
2022-08-19T18:56:33.271Z,25.32
2022-08-19T18:59:04.342Z,25.34
2022-08-19T19:01:39.636Z,25.38
2022-08-19T19:04:12.060Z,25.40
2022-08-19T19:06:42.757Z,25.43
2022-08-19T19:09:17.323Z,25.46
2022-08-19T19:11:58.013Z,25.49
2022-08-19T19:14:50.549Z,25.52
2022-08-19T19:17:18.741Z,25.53
2022-08-19T19:19:48.974Z,25.51
2022-08-19T19:22:19.941Z,25.52
2022-08-19T19:24:48.216Z,25.51
2022-08-19T19:27:20.510Z,25.49
2022-08-19T19:29:52.299Z,25.44
2022-08-19T19:32:24.603Z,25.42
2022-08-19T19:34:54.187Z,25.38
2022-08-19T19:37:22.767Z,25.37
2022-08-19T19:39:50.956Z,25.35
2022-08-19T19:42:21.675Z,25.28
2022-08-19T19:44:52.546Z,25.21
2022-08-19T19:47:21.742Z,25.16
2022-08-19T19:52:48.929Z,25.10
2022-08-19T19:55:18.526Z,25.05
2022-08-19T19:57:57.873Z,25.02
2022-08-19T20:00:26.382Z,24.98
2022-08-19T20:02:56.039Z,24.95
2022-08-19T20:05:24.964Z,24.91
2022-08-19T20:08:15.566Z,24.88
2022-08-19T20:10:44.240Z,24.83
2022-08-19T20:13:15.581Z,24.79
2022-08-19T20:15:43.971Z,24.73
2022-08-19T20:18:14.541Z,24.67
2022-08-19T20:20:43.734Z,24.61
2022-08-19T20:23:11.665Z,24.54
2022-08-19T20:25:39.818Z,24.49
2022-08-19T20:28:12.434Z,24.43
2022-08-19T20:30:47.531Z,24.38
2022-08-19T20:33:16.219Z,24.33
2022-08-19T20:35:45.531Z,24.29
2022-08-19T20:38:14.330Z,24.27
2022-08-19T20:40:42.271Z,24.24
2022-08-19T20:43:13.059Z,24.19
2022-08-19T20:45:41.364Z,24.12
2022-08-19T20:48:12.538Z,24.10
2022-08-19T20:50:40.968Z,24.05
2022-08-19T20:53:19.277Z,23.99
2022-08-19T20:55:49.733Z,23.93
2022-08-19T20:58:21.407Z,23.86
2022-08-19T21:00:50.588Z,23.79
2022-08-19T21:03:21.090Z,23.76
2022-08-19T21:05:50.851Z,23.73
2022-08-19T21:08:19.039Z,23.71
2022-08-19T21:10:49.037Z,23.69
2022-08-19T21:13:18.260Z,23.67
2022-08-19T21:15:46.840Z,23.64
2022-08-19T21:18:17.824Z,23.62
2022-08-19T21:20:46.352Z,23.58
2022-08-19T21:23:17.595Z,23.53
2022-08-19T21:25:54.175Z,23.47
2022-08-19T21:28:34.290Z,23.41
2022-08-19T21:31:07.230Z,23.35
2022-08-19T21:33:35.042Z,23.29
2022-08-19T21:36:05.323Z,23.25
2022-08-19T21:38:33.697Z,23.21
2022-08-19T21:41:06.249Z,23.18
2022-08-19T21:43:36.327Z,23.15
2022-08-19T21:46:05.353Z,23.10
2022-08-19T21:48:33.182Z,23.06
2022-08-19T21:51:01.060Z,23.01
2022-08-19T21:53:31.507Z,22.96
2022-08-19T21:56:03.141Z,22.90
2022-08-19T21:58:31.093Z,22.85
2022-08-19T22:01:00.693Z,22.80
2022-08-19T22:03:28.607Z,22.76
2022-08-19T22:05:56.395Z,22.73
2022-08-19T22:08:25.034Z,22.70
2022-08-19T22:10:53.279Z,22.65
2022-08-19T22:13:21.170Z,22.61
2022-08-19T22:15:51.997Z,22.59
2022-08-19T22:18:20.655Z,22.57
2022-08-19T22:20:48.507Z,22.54
2022-08-19T22:23:16.387Z,22.50
2022-08-19T22:25:46.093Z,22.47
2022-08-19T22:28:18.993Z,22.44
2022-08-19T22:30:56.275Z,22.43
2022-08-19T22:33:25.914Z,22.43
2022-08-19T22:35:53.775Z,22.42
2022-08-19T22:38:22.979Z,22.38
2022-08-19T22:40:52.221Z,22.34
2022-08-19T22:43:28.624Z,22.33
2022-08-19T22:45:57.173Z,22.31
2022-08-19T22:48:28.906Z,22.29
2022-08-19T22:51:16.380Z,22.26
2022-08-19T22:53:46.843Z,22.20
2022-08-19T22:56:18.302Z,22.17
2022-08-19T22:58:50.165Z,22.16
2022-08-19T23:01:27.279Z,22.14
2022-08-19T23:04:00.150Z,22.12
2022-08-19T23:06:33.467Z,22.12
2022-08-19T23:09:07.244Z,22.12
2022-08-19T23:11:41.627Z,22.12
2022-08-19T23:14:12.625Z,22.15
2022-08-19T23:16:41.989Z,22.15
2022-08-19T23:19:10.885Z,22.15
2022-08-19T23:21:41.614Z,22.12
2022-08-19T23:24:10.417Z,22.10
2022-08-19T23:26:38.593Z,22.06
2022-08-19T23:29:25.766Z,22.01
2022-08-19T23:31:53.851Z,21.97
2022-08-19T23:34:22.218Z,21.96
2022-08-19T23:36:50.935Z,21.95
2022-08-19T23:39:19.811Z,21.96
2022-08-19T23:41:48.006Z,21.96
2022-08-19T23:44:15.891Z,21.97
2022-08-19T23:46:54.561Z,21.97
2022-08-19T23:49:25.013Z,21.97
2022-08-19T23:51:54.522Z,21.95
2022-08-19T23:54:34.219Z,21.94
2022-08-19T23:57:14.131Z,21.93
2022-08-19T23:59:45.660Z,21.93
